Time;durP1;ratioP1;P1;durP2;ratioP2;P2;SDS_P1;SDS_P2;PMS_P1;PMS_P2;Temp;Humidity;BMP_temperature;BMP_pressure;BME280_temperature;BME280_humidity;BME280_pressure;Samples;Min_cycle;Max_cycle;Signal;HPM_P1;HPM_P2
2021/09/29 00:00:17;;;;;;;;;11.50;10.25;;;;;22.62;45.14;101333.53;5026458;28;51065;-56
2021/09/29 00:02:42;;;;;;;;;12.25;10.50;;;;;22.62;45.16;101333.53;5035302;28;50973;-56
2021/09/29 00:05:08;;;;;;;;;10.25;8.00;;;;;22.60;44.81;101328.19;5018371;28;51484;-55
2021/09/29 00:07:33;;;;;;;;;10.75;10.00;;;;;22.60;44.93;101322.66;5021818;28;51218;-55
2021/09/29 00:09:58;;;;;;;;;16.25;10.50;;;;;22.61;45.49;101320.75;5034059;28;51038;-55
2021/09/29 00:12:24;;;;;;;;;14.00;11.25;;;;;22.60;45.41;101308.03;5027290;28;51086;-55
2021/09/29 00:14:49;;;;;;;;;12.50;10.00;;;;;22.59;45.54;101312.69;5023008;28;51033;-56
2021/09/29 00:17:15;;;;;;;;;14.50;10.00;;;;;22.60;45.54;101308.03;5025273;28;51182;-56
2021/09/29 00:19:40;;;;;;;;;12.50;11.75;;;;;22.59;44.94;101300.81;5027996;28;51167;-55
2021/09/29 00:22:06;;;;;;;;;18.75;15.25;;;;;22.59;45.35;101312.69;5025907;28;51159;-53
2021/09/29 00:24:31;;;;;;;;;12.00;10.50;;;;;22.59;45.09;101322.91;5033507;28;51846;-56
2021/09/29 00:26:57;;;;;;;;;14.25;11.00;;;;;22.58;45.33;101313.78;5031638;28;51292;-55
2021/09/29 00:29:22;;;;;;;;;14.50;9.50;;;;;22.59;45.28;101318.22;5018725;28;51210;-56
2021/09/29 00:31:47;;;;;;;;;16.00;14.50;;;;;22.58;45.64;101312.94;5027064;28;51719;-57
2021/09/29 00:34:21;;;;;;;;;16.00;14.25;;;;;22.58;45.32;101321.22;5031148;28;51330;-55
2021/09/29 00:36:47;;;;;;;;;16.50;12.75;;;;;22.58;45.72;101315.69;5029795;28;51405;-56
2021/09/29 00:39:13;;;;;;;;;13.50;11.75;;;;;22.57;45.37;101314.84;5032646;28;51300;-56
2021/09/29 00:41:40;;;;;;;;;13.25;11.00;;;;;22.56;45.68;101304.88;5028369;28;51302;-55
2021/09/29 00:44:05;;;;;;;;;17.50;14.50;;;;;22.57;45.48;101292.75;5015684;28;51702;-56
2021/09/29 00:46:31;;;;;;;;;14.75;14.00;;;;;22.57;44.91;101297.44;5020162;28;51066;-56
2021/09/29 00:48:57;;;;;;;;;17.75;13.50;;;;;22.56;45.34;101285.56;5029141;28;51442;-55
2021/09/29 00:51:23;;;;;;;;;17.50;15.25;;;;;22.57;45.14;101283.63;5033787;28;51113;-56
2021/09/29 00:53:51;;;;;;;;;19.75;15.75;;;;;22.56;45.42;101288.31;5033583;28;51123;-56
2021/09/29 00:56:17;;;;;;;;;20.75;14.75;;;;;22.56;45.33;101293.00;5018559;28;51448;-56
2021/09/29 00:58:42;;;;;;;;;20.75;16.00;;;;;22.54;45.35;101290.47;5027741;28;51128;-54
2021/09/29 01:01:07;;;;;;;;;19.00;16.75;;;;;22.56;45.81;101284.72;5017860;28;51085;-55
2021/09/29 01:03:34;;;;;;;;;17.25;13.50;;;;;22.56;45.84;101284.72;5018183;28;51211;-54
2021/09/29 01:06:09;;;;;;;;;17.75;16.00;;;;;22.55;45.62;101283.03;5034501;28;51366;-55
2021/09/29 01:08:42;;;;;;;;;19.75;18.00;;;;;22.55;45.57;101278.34;5018499;28;51070;-53
2021/09/29 01:11:33;;;;;;;;;20.75;17.50;;;;;22.55;45.83;101277.50;5021043;28;51069;-54
2021/09/29 01:14:10;;;;;;;;;17.00;14.50;;;;;22.54;45.87;101273.91;5033160;28;52020;-55
2021/09/29 01:16:38;;;;;;;;;16.00;14.75;;;;;22.54;45.53;101271.13;5016599;28;51298;-54
2021/09/29 01:19:27;;;;;;;;;20.25;17.00;;;;;22.54;45.75;101279.41;5024687;28;51398;-55
2021/09/29 01:22:07;;;;;;;;;23.25;20.25;;;;;22.56;46.03;101281.94;5022684;28;51563;-54
2021/09/29 01:24:43;;;;;;;;;25.50;20.00;;;;;22.55;45.74;101274.75;5021119;28;53745;-56
2021/09/29 01:27:09;;;;;;;;;19.75;14.75;;;;;22.53;45.98;101272.22;5033438;28;51457;-55
2021/09/29 01:29:35;;;;;;;;;24.00;20.00;;;;;22.53;46.05;101265.84;5033628;28;51123;-55
2021/09/29 01:32:01;;;;;;;;;19.75;17.25;;;;;22.53;46.12;101268.59;5027311;28;51360;-55
2021/09/29 01:34:27;;;;;;;;;22.50;19.50;;;;;22.53;45.54;101274.13;5034196;28;51044;-55
2021/09/29 01:36:53;;;;;;;;;19.00;16.75;;;;;22.53;46.02;101277.72;5032987;28;51113;-54
2021/09/29 01:39:25;;;;;;;;;16.00;14.00;;;;;22.53;45.48;101265.84;5015256;28;51062;-54
2021/09/29 01:41:51;;;;;;;;;17.00;16.25;;;;;22.53;45.73;101263.09;5022322;28;51262;-54
2021/09/29 01:44:16;;;;;;;;;19.50;17.50;;;;;22.53;46.04;101257.56;5023026;28;51777;-55
2021/09/29 01:46:42;;;;;;;;;16.00;12.75;;;;;22.52;45.99;101259.47;5019308;28;51224;-54
2021/09/29 01:49:26;;;;;;;;;18.75;15.50;;;;;22.53;45.81;101252.03;5014591;28;51543;-55
2021/09/29 01:51:52;;;;;;;;;17.25;14.00;;;;;22.53;46.13;101261.16;5023004;28;51248;-55
2021/09/29 01:54:21;;;;;;;;;20.25;17.50;;;;;22.52;46.06;101256.72;5017858;28;51919;-55
2021/09/29 01:56:47;;;;;;;;;20.50;17.50;;;;;22.53;45.69;101257.56;5026316;28;51156;-55
2021/09/29 01:59:13;;;;;;;;;16.00;14.50;;;;;22.52;45.69;101256.72;5034401;28;51129;-55
2021/09/29 02:01:39;;;;;;;;;17.00;14.25;;;;;22.52;46.20;101253.97;5027711;28;51373;-54
2021/09/29 02:04:07;;;;;;;;;16.50;13.00;;;;;22.51;46.18;101252.28;5017796;28;51942;-53
2021/09/29 02:06:49;;;;;;;;;11.00;10.50;;;;;22.53;45.58;101246.50;5019289;28;50994;-54
2021/09/29 02:09:15;;;;;;;;;20.25;13.00;;;;;22.52;45.58;101250.34;5030593;28;51112;-53
2021/09/29 02:11:41;;;;;;;;;14.50;13.00;;;;;22.52;46.15;101248.44;5034326;28;50887;-55
2021/09/29 02:14:07;;;;;;;;;16.00;12.00;;;;;22.51;46.25;101248.63;5036958;28;51132;-54
2021/09/29 02:16:33;;;;;;;;;14.25;13.00;;;;;22.52;46.25;101255.88;5035308;28;51423;-54
2021/09/29 02:18:59;;;;;;;;;10.75;9.50;;;;;22.50;45.73;101252.47;5035661;28;51376;-56
2021/09/29 02:21:24;;;;;;;;;16.75;12.00;;;;;22.50;45.67;101252.47;5028963;28;51363;-56
2021/09/29 02:23:50;;;;;;;;;12.25;9.00;;;;;22.48;46.00;101231.47;5033580;28;52167;-55
2021/09/29 02:26:15;;;;;;;;;13.00;11.25;;;;;22.50;45.93;101235.91;5028039;28;51429;-55
2021/09/29 02:28:40;;;;;;;;;13.00;10.50;;;;;22.50;45.52;101245.03;5021258;28;51271;-55
2021/09/29 02:31:06;;;;;;;;;11.00;8.50;;;;;22.49;45.99;101251.63;5017885;28;51455;-54
2021/09/29 02:33:31;;;;;;;;;12.50;11.00;;;;;22.50;45.83;101242.28;5018414;28;52389;-55
2021/09/29 02:35:56;;;;;;;;;8.50;7.00;;;;;22.50;46.32;101246.94;5018753;28;51157;-56
2021/09/29 02:38:22;;;;;;;;;9.75;9.25;;;;;22.49;46.08;101240.59;5017898;28;51283;-56
2021/09/29 02:40:47;;;;;;;;;11.75;9.25;;;;;22.49;45.73;101248.88;5031834;28;51128;-55
2021/09/29 02:43:12;;;;;;;;;10.50;9.00;;;;;22.48;46.01;101250.78;5028653;28;51794;-55
2021/09/29 02:45:38;;;;;;;;;13.00;8.75;;;;;22.48;45.93;101248.03;5023426;28;51392;-55
2021/09/29 02:48:03;;;;;;;;;9.50;7.00;;;;;22.49;46.24;101254.38;5036743;28;51255;-54
2021/09/29 02:50:29;;;;;;;;;7.25;6.75;;;;;22.48;45.87;101260.97;5035985;28;51116;-55
2021/09/29 02:52:54;;;;;;;;;8.00;7.00;;;;;22.48;46.42;101253.53;5035593;28;51065;-56
2021/09/29 02:55:19;;;;;;;;;8.00;8.00;;;;;22.46;46.09;101252.94;5034460;28;51147;-54
2021/09/29 02:57:45;;;;;;;;;8.00;7.25;;;;;22.47;46.28;101246.34;5017589;28;51102;-56
2021/09/29 03:00:11;;;;;;;;;8.75;7.25;;;;;22.47;46.02;101259.28;5021649;28;51221;-56
2021/09/29 03:02:36;;;;;;;;;5.50;5.25;;;;;22.48;46.26;101258.22;5022528;28;51802;-54
2021/09/29 03:05:03;;;;;;;;;6.50;5.00;;;;;22.48;46.19;101250.78;5016071;28;50978;-54
2021/09/29 03:07:28;;;;;;;;;8.25;4.75;;;;;22.47;46.54;101251.84;5016903;28;51303;-56
2021/09/29 03:09:55;;;;;;;;;5.25;5.25;;;;;22.47;46.39;101249.09;5018438;28;51057;-56
2021/09/29 03:12:20;;;;;;;;;6.00;5.00;;;;;22.47;46.31;101253.78;5030296;28;50953;-54
2021/09/29 03:14:45;;;;;;;;;5.50;4.00;;;;;22.45;46.24;101251.25;5034490;28;51696;-54
2021/09/29 03:17:10;;;;;;;;;5.75;5.00;;;;;22.46;46.58;101255.69;5036116;28;51198;-55
2021/09/29 03:19:36;;;;;;;;;4.25;4.25;;;;;22.46;46.50;101255.69;5035130;28;51115;-55
2021/09/29 03:22:02;;;;;;;;;5.25;4.00;;;;;22.47;46.50;101248.25;5025083;28;51661;-55
2021/09/29 03:24:28;;;;;;;;;4.75;3.25;;;;;22.45;46.36;101248.47;5017994;28;51056;-56
2021/09/29 03:26:53;;;;;;;;;3.50;3.50;;;;;22.46;45.94;101244.66;5036081;28;51183;-55
2021/09/29 03:29:18;;;;;;;;;4.75;4.00;;;;;22.47;46.04;101242.72;5023877;28;51158;-56
2021/09/29 03:31:44;;;;;;;;;3.50;3.50;;;;;22.47;46.08;101245.50;5027827;28;51663;-55
2021/09/29 03:34:09;;;;;;;;;6.50;4.00;;;;;22.45;46.64;101233.84;5016607;28;51023;-56
2021/09/29 03:36:35;;;;;;;;;1.50;1.50;;;;;22.45;46.65;101248.47;5034709;28;52368;-56
2021/09/29 03:39:00;;;;;;;;;2.25;1.75;;;;;22.45;46.50;101240.19;5019438;28;51218;-55
2021/09/29 03:41:27;;;;;;;;;6.00;2.75;;;;;22.45;46.67;101245.72;5023133;28;51701;-55
2021/09/29 03:43:53;;;;;;;;;2.75;2.50;;;;;22.44;46.59;101246.78;5016698;28;51293;-56
2021/09/29 03:46:19;;;;;;;;;1.75;1.75;;;;;22.44;46.03;101249.56;5016586;28;51152;-55
2021/09/29 03:48:44;;;;;;;;;4.00;4.00;;;;;22.45;46.38;101251.25;5022337;28;51282;-55
2021/09/29 03:51:10;;;;;;;;;2.00;2.00;;;;;22.45;46.13;101250.41;5023181;28;51786;-55
2021/09/29 03:53:36;;;;;;;;;3.00;3.00;;;;;22.44;46.22;101257.84;5031813;28;51461;-55
2021/09/29 03:56:01;;;;;;;;;2.25;2.25;;;;;22.43;46.62;101258.91;5020636;28;51198;-56
2021/09/29 03:58:27;;;;;;;;;2.00;2.00;;;;;22.44;46.29;101266.13;5022990;28;51100;-55
2021/09/29 04:00:52;;;;;;;;;2.00;1.75;;;;;22.44;46.75;101262.50;5016573;28;51069;-55
2021/09/29 04:03:18;;;;;;;;;1.50;1.50;;;;;22.43;46.57;101255.31;5022546;28;51155;-56
2021/09/29 04:05:43;;;;;;;;;2.00;2.00;;;;;22.43;46.31;101258.91;5016514;28;51521;-55
2021/09/29 04:08:10;;;;;;;;;3.50;2.25;;;;;22.42;46.39;101259.97;5026714;28;51218;-55
2021/09/29 04:10:35;;;;;;;;;2.50;1.75;;;;;22.44;46.55;101270.78;5022688;28;51093;-55
2021/09/29 04:13:02;;;;;;;;;3.75;2.00;;;;;22.42;46.89;101262.75;5026233;28;51220;-55
2021/09/29 04:15:27;;;;;;;;;2.00;2.00;;;;;22.42;46.92;101259.97;5034997;28;51147;-55
2021/09/29 04:17:53;;;;;;;;;1.75;1.00;;;;;22.42;46.84;101264.66;5027739;28;51334;-54
2021/09/29 04:20:18;;;;;;;;;2.50;1.75;;;;;22.42;46.50;101262.75;5025976;28;52146;-54
2021/09/29 04:22:43;;;;;;;;;2.00;2.00;;;;;22.41;46.71;101260.22;5025249;28;51119;-54
2021/09/29 04:25:11;;;;;;;;;3.00;1.00;;;;;22.42;46.79;101265.50;5029111;28;51362;-55
2021/09/29 04:27:36;;;;;;;;;3.00;3.00;;;;;22.40;46.87;101267.63;5029705;28;51344;-55
2021/09/29 04:30:03;;;;;;;;;1.75;1.75;;;;;22.41;47.00;101266.56;5031404;28;51125;-55
2021/09/29 04:32:29;;;;;;;;;2.00;2.00;;;;;22.41;46.47;101269.34;5021568;28;50981;-54
2021/09/29 04:34:54;;;;;;;;;0.00;0.00;;;;;22.40;46.67;101262.09;5016114;28;51128;-55
2021/09/29 04:37:19;;;;;;;;;1.00;1.00;;;;;22.41;46.44;101269.34;5022156;28;51098;-55
2021/09/29 04:39:45;;;;;;;;;2.50;0.00;;;;;22.40;46.82;101270.38;5021571;28;51155;-56
2021/09/29 04:42:10;;;;;;;;;0.00;0.00;;;;;22.40;46.49;101269.53;5022597;28;51152;-55
2021/09/29 04:44:35;;;;;;;;;1.50;1.50;;;;;22.40;46.49;101270.38;5027154;28;50929;-53
2021/09/29 04:47:01;;;;;;;;;2.50;1.00;;;;;22.40;46.92;101278.66;5034172;28;51115;-55
2021/09/29 04:49:27;;;;;;;;;1.00;1.00;;;;;22.41;47.10;101285.06;5033088;28;51098;-53
2021/09/29 04:51:52;;;;;;;;;1.00;1.00;;;;;22.40;46.44;101281.41;5015722;28;51026;-55
2021/09/29 04:54:17;;;;;;;;;2.00;2.00;;;;;22.41;46.98;101287.81;5023803;28;51056;-55
2021/09/29 04:56:43;;;;;;;;;0.50;0.00;;;;;22.41;46.60;101285.91;5015956;28;51409;-54
2021/09/29 04:59:10;;;;;;;;;1.00;1.00;;;;;22.41;46.78;101287.81;5026900;28;51664;-56
2021/09/29 05:01:35;;;;;;;;;1.75;1.75;;;;;22.41;46.72;101301.63;5022103;28;51215;-55
2021/09/29 05:04:01;;;;;;;;;1.00;1.00;;;;;22.40;46.86;101336.63;5021260;28;51236;-51
2021/09/29 05:06:28;;;;;;;;;1.00;1.00;;;;;22.41;47.37;101334.75;5024440;28;51721;-51
2021/09/29 05:08:54;;;;;;;;;0.25;0.25;;;;;22.40;47.24;101331.09;5030688;28;51900;-52
2021/09/29 05:11:34;;;;;;;;;0.00;0.00;;;;;22.37;46.59;101336.25;5021171;28;51043;-52
2021/09/29 05:14:00;;;;;;;;;0.00;0.00;;;;;22.34;46.36;101340.28;5026388;28;51530;-53
2021/09/29 05:16:26;;;;;;;;;0.00;0.00;;;;;22.32;46.14;101350.72;5030984;28;51259;-53
2021/09/29 05:18:52;;;;;;;;;0.00;0.00;;;;;22.29;45.99;101353.91;5028863;28;51820;-52
2021/09/29 05:21:17;;;;;;;;;0.00;0.00;;;;;22.26;46.47;101343.31;5018691;28;51139;-55
2021/09/29 05:23:43;;;;;;;;;0.00;0.00;;;;;22.24;46.04;101341.84;5020369;28;51121;-55
2021/09/29 05:26:08;;;;;;;;;0.50;0.50;;;;;22.23;46.35;101334.66;5023191;28;51155;-55
2021/09/29 05:28:40;;;;;;;;;1.25;1.25;;;;;22.20;46.52;101338.72;5028864;28;51985;-53
2021/09/29 05:31:05;;;;;;;;;0.00;0.00;;;;;22.21;46.63;101345.91;5034073;28;51701;-55
2021/09/29 05:33:31;;;;;;;;;0.00;0.00;;;;;22.22;46.62;101355.88;5029084;28;51105;-59
2021/09/29 05:35:56;;;;;;;;;0.00;0.00;;;;;22.22;46.64;101355.88;5022716;28;51505;-55
2021/09/29 05:38:22;;;;;;;;;0.75;0.00;;;;;22.23;46.37;101360.34;5029349;28;51630;-57
2021/09/29 05:40:47;;;;;;;;;0.00;0.00;;;;;22.25;46.48;101362.88;5034498;28;51017;-56
2021/09/29 05:43:13;;;;;;;;;0.00;0.00;;;;;22.26;46.81;101376.44;5030844;28;51396;-55
2021/09/29 05:45:39;;;;;;;;;0.25;0.25;;;;;22.26;46.83;101375.59;5033678;28;51327;-56
2021/09/29 05:48:04;;;;;;;;;0.00;0.00;;;;;22.25;47.10;101377.50;5028438;28;52220;-54
2021/09/29 05:50:30;;;;;;;;;0.00;0.00;;;;;22.25;46.88;101383.03;5023024;28;51263;-54
2021/09/29 05:52:55;;;;;;;;;0.00;0.00;;;;;22.28;47.17;101392.78;5032192;28;52653;-56
2021/09/29 05:55:21;;;;;;;;;2.00;0.00;;;;;22.28;46.85;101382.56;5022749;28;51264;-57
2021/09/29 05:57:46;;;;;;;;;0.25;0.00;;;;;22.28;47.21;101399.13;5023875;28;53067;-57
2021/09/29 06:00:12;;;;;;;;;0.50;0.50;;;;;22.30;47.08;101401.66;5034366;28;51139;-55
2021/09/29 06:02:38;;;;;;;;;0.00;0.00;;;;;22.30;47.16;101408.06;5035611;28;51231;-58
2021/09/29 06:05:04;;;;;;;;;1.00;0.50;;;;;22.30;46.80;101419.09;5028496;28;51195;-57
2021/09/29 06:07:30;;;;;;;;;1.25;0.00;;;;;22.31;47.26;101412.50;5025256;28;51901;-56
2021/09/29 06:09:56;;;;;;;;;0.00;0.00;;;;;22.33;47.28;101423.31;5027886;28;51257;-57
2021/09/29 06:12:21;;;;;;;;;2.75;0.00;;;;;22.34;47.63;101431.38;5031485;28;51199;-58
2021/09/29 06:14:50;;;;;;;;;1.75;0.00;;;;;22.34;47.28;101431.38;5018055;28;51037;-57
2021/09/29 06:17:24;;;;;;;;;1.50;0.50;;;;;22.35;47.64;101444.13;5032964;28;52570;-58
2021/09/29 06:19:52;;;;;;;;;0.00;0.00;;;;;22.35;47.37;101449.63;5036796;28;51289;-59
2021/09/29 06:22:18;;;;;;;;;1.50;0.50;;;;;22.37;47.87;101447.50;5028683;28;51183;-58
2021/09/29 06:24:43;;;;;;;;;2.50;0.75;;;;;22.38;47.29;101462.13;5020706;28;51161;-57
2021/09/29 06:27:09;;;;;;;;;1.25;1.00;;;;;22.37;47.45;101469.56;5033190;28;51707;-58
2021/09/29 06:29:35;;;;;;;;;2.00;0.75;;;;;22.38;47.51;101474.03;5018621;28;51103;-58
2021/09/29 06:32:02;;;;;;;;;0.75;0.00;;;;;22.39;47.93;101483.16;5018711;28;51017;-58
2021/09/29 06:34:28;;;;;;;;;0.50;0.50;;;;;22.39;47.56;101481.22;5022280;28;51326;-59
2021/09/29 06:36:54;;;;;;;;;0.00;0.00;;;;;22.38;47.26;101487.81;5019098;28;55113;-59
2021/09/29 06:39:19;;;;;;;;;1.50;0.00;;;;;22.41;47.61;101500.38;5017510;28;51092;-58
2021/09/29 06:41:45;;;;;;;;;2.75;1.00;;;;;22.40;47.50;101502.25;5018450;28;51051;-58
2021/09/29 06:44:11;;;;;;;;;0.00;0.00;;;;;22.40;46.79;101513.28;5021132;28;51172;-58
2021/09/29 06:46:36;;;;;;;;;0.25;0.25;;;;;22.40;46.88;101513.28;5034941;28;51710;-58
2021/09/29 06:49:02;;;;;;;;;0.25;0.00;;;;;22.42;46.68;101524.16;5035789;28;51218;-58
2021/09/29 06:51:27;;;;;;;;;0.00;0.00;;;;;22.41;47.16;101514.16;5036776;28;50991;-58
2021/09/29 06:53:53;;;;;;;;;3.25;1.00;;;;;22.41;46.51;101511.41;5034335;28;51354;-58
2021/09/29 06:56:19;;;;;;;;;0.00;0.00;;;;;22.39;46.50;101502.47;5016953;28;51044;-55
2021/09/29 06:58:45;;;;;;;;;0.25;0.25;;;;;22.38;46.51;101518.19;5031462;28;50934;-55
2021/09/29 07:01:11;;;;;;;;;3.00;2.00;;;;;22.39;46.68;101521.78;5036038;28;51498;-54
2021/09/29 07:03:36;;;;;;;;;0.00;0.00;;;;;22.38;46.88;101529.22;5037510;28;51122;-54
2021/09/29 07:06:02;;;;;;;;;1.50;0.00;;;;;22.39;46.96;101536.44;5036786;28;51031;-54
2021/09/29 07:08:27;;;;;;;;;2.75;1.25;;;;;22.39;46.75;101535.59;5036641;28;50945;-55
2021/09/29 07:10:53;;;;;;;;;0.00;0.00;;;;;22.38;46.72;101537.50;5037163;28;51036;-55
2021/09/29 07:13:18;;;;;;;;;0.00;0.00;;;;;22.38;46.50;101543.03;5037104;28;51166;-54
2021/09/29 07:15:44;;;;;;;;;2.25;0.25;;;;;22.38;46.35;101536.66;5036588;28;51129;-54
2021/09/29 07:18:10;;;;;;;;;0.25;0.25;;;;;22.38;46.84;101540.28;5036154;28;51037;-54
2021/09/29 07:20:36;;;;;;;;;0.00;0.00;;;;;22.38;46.53;101547.72;5036700;28;50970;-55
2021/09/29 07:23:05;;;;;;;;;2.75;0.00;;;;;22.36;46.73;101553.44;5036967;28;50900;-54
2021/09/29 07:25:31;;;;;;;;;2.00;2.00;;;;;22.37;46.33;101560.66;5036403;28;51760;-55
2021/09/29 07:27:57;;;;;;;;;0.00;0.00;;;;;22.36;46.82;101550.69;5036321;28;51046;-53
2021/09/29 07:30:23;;;;;;;;;0.00;0.00;;;;;22.36;46.87;101556.22;5036549;28;50957;-54
2021/09/29 07:32:51;;;;;;;;;0.25;0.25;;;;;22.38;46.34;101559.59;5036451;28;51172;-55
2021/09/29 07:35:17;;;;;;;;;0.50;0.50;;;;;22.37;46.26;101565.34;5035961;28;51880;-54
2021/09/29 07:37:43;;;;;;;;;2.00;1.00;;;;;22.36;46.51;101567.25;5036179;28;51353;-55
2021/09/29 07:40:09;;;;;;;;;0.00;0.00;;;;;22.37;46.15;101579.13;5036186;28;51154;-55
2021/09/29 07:42:36;;;;;;;;;1.00;0.00;;;;;22.37;46.38;101573.63;5036720;28;51136;-55
2021/09/29 07:45:02;;;;;;;;;1.25;0.00;;;;;22.36;46.46;101586.56;5036216;28;51767;-54
2021/09/29 07:47:28;;;;;;;;;1.00;1.00;;;;;22.36;46.65;101589.34;5035709;28;51160;-54
2021/09/29 07:49:53;;;;;;;;;0.50;0.50;;;;;22.36;46.17;101586.56;5035706;28;51437;-54
2021/09/29 07:52:18;;;;;;;;;1.00;0.25;;;;;22.37;46.58;101593.78;5036255;28;51114;-54
2021/09/29 07:54:44;;;;;;;;;0.25;0.25;;;;;22.38;46.43;101600.16;5036056;28;52038;-55
2021/09/29 07:57:09;;;;;;;;;1.00;1.00;;;;;22.38;46.21;101598.25;5036126;28;51124;-54
2021/09/29 07:59:35;;;;;;;;;0.00;0.00;;;;;22.39;46.38;101599.94;5036183;28;51576;-54
2021/09/29 08:02:00;;;;;;;;;0.00;0.00;;;;;22.39;46.33;101605.47;5036401;28;51364;-55
2021/09/29 08:04:25;;;;;;;;;2.00;1.00;;;;;22.40;46.52;101609.91;5035841;28;51081;-55
2021/09/29 08:06:51;;;;;;;;;0.75;0.00;;;;;22.42;45.96;101606.97;5036100;28;51115;-55
2021/09/29 08:09:17;;;;;;;;;0.75;0.75;;;;;22.44;46.02;101616.72;5036206;28;51058;-55
2021/09/29 08:11:43;;;;;;;;;0.00;0.00;;;;;22.47;46.05;101623.72;5035999;28;50994;-55
2021/09/29 08:14:08;;;;;;;;;0.00;0.00;;;;;22.48;46.39;101625.41;5035794;28;51859;-55
2021/09/29 08:16:33;;;;;;;;;0.00;0.00;;;;;22.50;45.87;101628.78;5035588;28;50982;-55
2021/09/29 08:18:59;;;;;;;;;1.00;1.00;;;;;22.54;46.16;101629.22;5035814;28;51208;-54
2021/09/29 08:21:28;;;;;;;;;0.00;0.00;;;;;22.57;46.26;101637.06;5036073;28;51137;-55
2021/09/29 08:23:59;;;;;;;;;2.00;1.00;;;;;22.59;46.06;101634.91;5035732;28;52112;-54
2021/09/29 08:29:53;;;;;;;;;1.00;1.00;;;;;22.60;46.38;101639.38;5035596;28;51252;-55
2021/09/29 08:34:23;;;;;;;;;3.75;1.50;;;;;22.62;45.95;101664.88;5035518;28;51053;-53
2021/09/29 08:39:26;;;;;;;;;0.25;0.25;;;;;22.67;45.66;101662.31;5035693;28;51101;-54
2021/09/29 08:44:32;;;;;;;;;0.75;0.75;;;;;22.76;45.90;101666.53;5035272;28;51032;-54
2021/09/29 08:47:22;;;;;;;;;1.00;1.00;;;;;22.81;45.90;101680.50;5035471;28;51021;-56
2021/09/29 09:16:40;;;;;;;;;1.00;1.00;;;;;23.33;45.09;101711.78;5038039;28;51490;-55
2021/09/29 09:19:11;;;;;;;;;2.25;1.75;;;;;23.36;44.76;101705.84;5036913;28;51323;-56
2021/09/29 09:21:50;;;;;;;;;1.75;1.00;;;;;23.39;44.86;101712.84;5038547;28;51116;-56
2021/09/29 09:24:17;;;;;;;;;1.75;1.00;;;;;23.43;44.60;101712.16;5038803;28;51179;-55
2021/09/29 09:26:44;;;;;;;;;1.75;1.75;;;;;23.44;44.68;101722.16;5037858;28;51037;-56
2021/09/29 09:29:11;;;;;;;;;3.00;1.75;;;;;23.46;44.58;101728.31;5038215;28;50989;-56
2021/09/29 09:31:39;;;;;;;;;3.50;1.25;;;;;23.49;44.38;101729.78;5038487;28;51018;-54
2021/09/29 09:34:07;;;;;;;;;2.00;2.00;;;;;23.51;44.57;101733.19;5038381;28;51652;-56
2021/09/29 09:36:35;;;;;;;;;0.75;0.75;;;;;23.52;44.70;101729.34;5038197;28;51130;-55
2021/09/29 09:39:15;;;;;;;;;2.50;1.00;;;;;23.52;44.27;101735.72;5038136;28;51119;-56
2021/09/29 09:41:46;;;;;;;;;0.25;0.00;;;;;23.53;44.08;101733.81;5038629;28;51241;-56
2021/09/29 09:44:12;;;;;;;;;0.75;0.25;;;;;23.54;44.13;101733.56;5038342;28;51481;-55
2021/09/29 09:46:37;;;;;;;;;1.50;1.50;;;;;23.56;44.24;101742.53;5037617;28;50959;-56
2021/09/29 09:49:11;;;;;;;;;1.00;1.00;;;;;23.56;44.25;101737.00;5037566;28;51036;-55
2021/09/29 09:51:51;;;;;;;;;2.00;1.00;;;;;23.57;43.97;101737.84;5037807;28;51182;-56
2021/09/29 09:54:17;;;;;;;;;3.00;2.25;;;;;23.56;43.91;101742.53;5038318;28;51179;-55
2021/09/29 09:56:52;;;;;;;;;1.00;1.00;;;;;23.59;44.26;101739.34;5037753;28;51143;-56
2021/09/29 09:59:17;;;;;;;;;1.00;1.00;;;;;23.60;44.03;101754.00;5037966;28;51104;-57
2021/09/29 10:01:43;;;;;;;;;1.50;0.50;;;;;23.60;43.83;101746.56;5038023;28;51077;-56
2021/09/29 10:04:10;;;;;;;;;2.50;1.75;;;;;23.62;44.14;101754.63;5037779;28;51026;-55
2021/09/29 10:06:36;;;;;;;;;1.25;1.25;;;;;23.64;43.55;101759.94;5037415;28;51767;-56
2021/09/29 10:09:09;;;;;;;;;2.25;1.00;;;;;23.66;43.54;101757.81;5037869;28;51110;-56
2021/09/29 10:23:06;;;;;;;;;1.00;0.25;;;;;23.73;43.74;101766.91;5028495;28;51317;-55
2021/09/29 10:28:18;;;;;;;;;1.00;1.00;;;;;23.77;43.66;101768.19;5016953;28;51431;-57
2021/09/29 10:31:25;;;;;;;;;2.75;2.00;;;;;23.77;43.39;101771.78;5016933;28;50895;-55
2021/09/29 10:33:56;;;;;;;;;0.00;0.00;;;;;23.77;43.65;101779.25;5017147;28;51268;-56
2021/09/29 10:36:27;;;;;;;;;2.25;1.75;;;;;23.76;43.11;101769.22;5017238;28;51206;-56
2021/09/29 10:41:59;;;;;;;;;2.00;1.00;;;;;23.77;43.21;101834.59;5016534;28;51171;-56
2021/09/29 10:50:49;;;;;;;;;3.25;1.00;;;;;23.72;43.21;101850.97;5016274;28;51854;-56
2021/09/29 10:53:01;;;;;;;;;1.75;1.75;;;;;23.72;43.25;101849.06;5016222;28;51386;-56
2021/09/29 11:30:27;;;;;;;;;1.00;1.00;;;;;23.71;42.98;101872.25;5036177;28;51056;-55
2021/09/29 11:32:59;;;;;;;;;1.50;1.50;;;;;23.72;43.15;101881.41;5036071;28;52805;-55
2021/09/29 11:35:57;;;;;;;;;0.00;0.00;;;;;23.72;42.93;101875.88;5035968;28;51118;-56
2021/09/29 12:11:28;;;;;;;;;3.00;1.25;;;;;23.54;42.54;101926.31;5013749;28;51087;-55
2021/09/29 12:16:30;;;;;;;;;1.00;1.00;;;;;23.52;43.12;101932.06;5034796;28;51083;-55
2021/09/29 12:19:06;;;;;;;;;1.50;1.50;;;;;23.50;42.65;101928.69;5035298;28;51182;-56
2021/09/29 12:21:43;;;;;;;;;1.00;1.00;;;;;23.50;42.69;101923.16;5035448;28;51107;-55
2021/09/29 12:24:14;;;;;;;;;1.50;1.00;;;;;23.50;42.63;101916.78;5035533;28;50973;-53
2021/09/29 12:26:42;;;;;;;;;1.00;0.00;;;;;23.47;42.80;101918.06;5035330;28;52019;-55
2021/09/29 12:29:22;;;;;;;;;2.25;1.50;;;;;23.48;43.13;101928.06;5035298;28;51129;-55
2021/09/29 12:31:52;;;;;;;;;0.00;0.00;;;;;23.46;43.05;101926.56;5035207;28;51111;-55
2021/09/29 12:36:47;;;;;;;;;2.00;1.00;;;;;23.44;43.16;101935.06;5034981;28;51845;-55
2021/09/29 12:39:22;;;;;;;;;1.00;1.00;;;;;23.45;42.98;101935.94;5035341;28;51100;-55
2021/09/29 12:41:54;;;;;;;;;0.75;0.75;;;;;23.43;42.87;101930.59;5035588;28;51208;-55
2021/09/29 12:44:20;;;;;;;;;1.00;0.75;;;;;23.42;42.96;101934.44;5035609;28;51157;-55
2021/09/29 12:46:52;;;;;;;;;1.00;1.00;;;;;23.42;43.01;101933.59;5033464;28;53441;-55
2021/09/29 12:49:21;;;;;;;;;1.00;1.00;;;;;23.39;42.81;101934.03;5034703;28;51310;-56
2021/09/29 12:51:56;;;;;;;;;1.00;1.00;;;;;23.37;43.19;101928.72;5035118;28;51233;-56
2021/09/29 12:54:24;;;;;;;;;0.00;0.00;;;;;23.37;43.07;101933.41;5035485;28;51199;-56
2021/09/29 12:56:49;;;;;;;;;1.75;0.75;;;;;23.35;43.08;101939.16;5034658;28;51898;-56
2021/09/29 12:59:14;;;;;;;;;0.75;0.75;;;;;23.33;43.43;101944.88;5034439;28;50989;-56
2021/09/29 13:01:40;;;;;;;;;0.25;0.25;;;;;23.32;43.20;101945.09;5034634;28;51093;-56
2021/09/29 13:04:05;;;;;;;;;3.00;1.00;;;;;23.31;43.31;101949.78;5035129;28;51117;-56
2021/09/29 13:06:31;;;;;;;;;1.00;1.00;;;;;23.30;43.07;101934.25;5032694;28;53107;-56
2021/09/29 13:08:56;;;;;;;;;2.75;1.00;;;;;23.29;43.25;101949.13;5034665;28;51171;-56
2021/09/29 13:11:21;;;;;;;;;1.00;1.00;;;;;23.28;43.48;101957.66;5035765;28;51098;-56
2021/09/29 13:13:47;;;;;;;;;1.50;0.50;;;;;23.27;43.02;101964.25;5033974;28;51171;-55
2021/09/29 13:16:12;;;;;;;;;0.00;0.00;;;;;23.26;43.22;101977.22;5034050;28;51060;-55
2021/09/29 13:21:57;;;;;;;;;1.50;0.50;;;;;23.24;43.53;101997.81;5034830;28;51053;-56
2021/09/29 13:24:19;;;;;;;;;0.00;0.00;;;;;23.23;43.29;101996.13;5033561;28;51067;-54
2021/09/29 13:37:38;;;;;;;;;1.00;1.00;;;;;23.18;43.66;102021.66;5034552;28;51776;-56
2021/09/29 13:40:05;;;;;;;;;1.75;1.00;;;;;23.18;43.02;102013.38;5034551;28;51001;-55
2021/09/29 13:42:30;;;;;;;;;0.00;0.00;;;;;23.18;43.27;102013.38;5034651;28;51109;-56
2021/09/29 13:44:57;;;;;;;;;1.00;0.00;;;;;23.18;42.96;102012.53;5033829;28;50999;-56
2021/09/29 13:47:22;;;;;;;;;0.00;0.00;;;;;23.17;43.43;102014.44;5033765;28;51023;-55
2021/09/29 13:49:48;;;;;;;;;0.75;0.75;;;;;23.16;43.50;102011.88;5036274;28;51196;-55